Time;durP1;ratioP1;P1;durP2;ratioP2;P2;SDS_P1;SDS_P2;PMS_P1;PMS_P2;Temp;Humidity;BMP_temperature;BMP_pressure;BME280_temperature;BME280_humidity;BME280_pressure;Samples;Min_cycle;Max_cycle;Signal;HPM_P1;HPM_P2
2022/06/04 00:00:15;;;;;;;22.87;21.50;;;;;;;;;;5076560;28;20405;-84
2022/06/04 00:02:45;;;;;;;22.40;21.10;;;;;;;;;;5075661;28;20465;-84
2022/06/04 00:05:13;;;;;;;23.30;21.97;;;;;;;;;;5076446;28;20926;-84
2022/06/04 00:07:41;;;;;;;22.67;21.27;;;;;;;;;;5076182;28;20438;-85
2022/06/04 00:15:40;;;;;;;23.10;21.80;;;;;;;;;;5075611;28;20465;-84
2022/06/04 00:18:09;;;;;;;23.80;22.40;;;;;;;;;;5076006;28;20413;-84
2022/06/04 00:20:36;;;;;;;23.03;21.60;;;;;;;;;;5075643;28;20465;-85
2022/06/04 00:23:05;;;;;;;23.30;22.00;;;;;;;;;;5075521;28;20849;-84
2022/06/04 00:25:33;;;;;;;23.20;21.80;;;;;;;;;;5075606;28;20409;-85
2022/06/04 00:28:00;;;;;;;22.90;21.53;;;;;;;;;;5075510;28;20413;-85
2022/06/04 00:30:28;;;;;;;23.27;21.87;;;;;;;;;;5075901;28;20489;-84
2022/06/04 00:32:55;;;;;;;23.47;21.87;;;;;;;;;;5075062;28;20438;-84
2022/06/04 00:35:24;;;;;;;24.33;22.60;;;;;;;;;;5075425;28;20437;-84
2022/06/04 00:37:52;;;;;;;22.80;21.47;;;;;;;;;;5075437;28;20762;-84
2022/06/04 00:40:36;;;;;;;24.00;22.50;;;;;;;;;;5075159;28;20449;-84
2022/06/04 00:43:03;;;;;;;22.70;21.40;;;;;;;;;;5075500;28;20412;-85
2022/06/04 00:45:55;;;;;;;23.20;21.90;;;;;;;;;;5075545;28;20842;-84
2022/06/04 00:48:22;;;;;;;23.40;22.00;;;;;;;;;;5075399;28;20408;-85
2022/06/04 00:50:51;;;;;;;23.43;21.93;;;;;;;;;;5075194;28;20503;-85
2022/06/04 00:53:18;;;;;;;23.47;22.07;;;;;;;;;;5075522;28;20421;-85
2022/06/04 00:55:47;;;;;;;23.83;22.33;;;;;;;;;;5075386;28;20514;-84
2022/06/04 00:58:28;;;;;;;23.40;22.00;;;;;;;;;;5075148;28;20428;-84
2022/06/04 01:00:59;;;;;;;23.30;21.70;;;;;;;;;;5074923;28;20413;-85
2022/06/04 01:03:34;;;;;;;23.20;21.70;;;;;;;;;;5075217;28;20409;-85
2022/06/04 01:06:16;;;;;;;23.37;22.07;;;;;;;;;;5075082;28;20796;-84
2022/06/04 01:08:56;;;;;;;23.13;21.83;;;;;;;;;;5074964;28;20420;-84
2022/06/04 01:11:27;;;;;;;24.10;22.60;;;;;;;;;;5074576;28;20480;-83
2022/06/04 01:14:01;;;;;;;23.20;21.90;;;;;;;;;;5074806;28;20417;-85
2022/06/04 01:16:30;;;;;;;23.40;21.90;;;;;;;;;;5075122;28;20450;-84
2022/06/04 01:19:02;;;;;;;23.50;22.10;;;;;;;;;;5066876;28;20455;-84
2022/06/04 01:21:35;;;;;;;22.93;21.63;;;;;;;;;;5033451;28;20434;-84
2022/06/04 01:24:11;;;;;;;24.20;22.60;;;;;;;;;;5051919;28;20410;-84
2022/06/04 01:26:47;;;;;;;22.93;21.63;;;;;;;;;;5054323;28;20449;-84
2022/06/04 01:29:16;;;;;;;22.40;21.10;;;;;;;;;;5054377;28;20887;-85
2022/06/04 01:31:45;;;;;;;23.20;21.90;;;;;;;;;;5054698;28;20510;-85
2022/06/04 01:34:14;;;;;;;23.83;22.10;;;;;;;;;;5054238;28;20414;-85
2022/06/04 01:36:44;;;;;;;22.23;21.03;;;;;;;;;;5054191;28;20414;-84
2022/06/04 01:39:14;;;;;;;23.03;21.73;;;;;;;;;;5054097;28;20923;-84
2022/06/04 01:41:44;;;;;;;23.40;22.00;;;;;;;;;;5054065;28;20802;-83
2022/06/04 01:44:13;;;;;;;23.70;22.30;;;;;;;;;;5054181;28;20538;-85
2022/06/04 01:46:45;;;;;;;22.50;21.30;;;;;;;;;;5053503;28;20406;-85
2022/06/04 01:49:15;;;;;;;22.90;21.60;;;;;;;;;;5054216;28;20418;-84
2022/06/04 01:51:42;;;;;;;22.73;21.43;;;;;;;;;;5053850;28;20456;-85
2022/06/04 01:54:13;;;;;;;23.70;22.30;;;;;;;;;;5054315;28;20447;-84
2022/06/04 01:56:45;;;;;;;24.50;22.90;;;;;;;;;;5053822;28;20443;-85
2022/06/04 01:59:16;;;;;;;23.90;22.50;;;;;;;;;;5053683;28;20414;-84
2022/06/04 02:01:45;;;;;;;23.47;21.87;;;;;;;;;;5053909;28;20414;-85
2022/06/04 02:04:16;;;;;;;23.60;22.00;;;;;;;;;;5054102;28;20437;-85
2022/06/04 02:06:45;;;;;;;22.60;21.20;;;;;;;;;;5053842;28;20421;-85
2022/06/04 02:09:15;;;;;;;23.40;22.10;;;;;;;;;;5053808;28;20421;-84
2022/06/04 02:11:48;;;;;;;23.00;21.60;;;;;;;;;;5053432;28;20478;-84
2022/06/04 02:14:16;;;;;;;22.97;21.50;;;;;;;;;;5053386;28;20825;-84
2022/06/04 02:16:45;;;;;;;23.37;21.87;;;;;;;;;;5053671;28;20426;-84
2022/06/04 02:19:12;;;;;;;22.80;21.50;;;;;;;;;;5054551;28;20427;-84
2022/06/04 02:21:40;;;;;;;23.90;22.50;;;;;;;;;;5073472;28;20922;-84
2022/06/04 02:24:08;;;;;;;23.23;21.93;;;;;;;;;;5073788;28;20442;-83
2022/06/04 02:26:36;;;;;;;23.17;21.57;;;;;;;;;;5073346;28;20413;-84
2022/06/04 02:29:05;;;;;;;22.90;21.50;;;;;;;;;;5073190;28;20424;-84
2022/06/04 02:31:36;;;;;;;22.40;21.20;;;;;;;;;;5073632;28;20798;-85
2022/06/04 02:34:06;;;;;;;22.50;21.00;;;;;;;;;;5073565;28;20454;-84
2022/06/04 02:36:38;;;;;;;22.73;21.43;;;;;;;;;;5073793;28;20435;-85
2022/06/04 02:39:11;;;;;;;23.73;22.13;;;;;;;;;;5055380;28;20918;-85
2022/06/04 02:41:41;;;;;;;23.70;22.20;;;;;;;;;;5073478;28;20454;-85
2022/06/04 02:44:12;;;;;;;23.30;22.00;;;;;;;;;;5073203;28;20420;-84
2022/06/04 02:46:44;;;;;;;24.30;22.90;;;;;;;;;;5073107;28;20438;-85
2022/06/04 02:49:14;;;;;;;23.40;22.00;;;;;;;;;;5073224;28;20943;-84
2022/06/04 02:51:44;;;;;;;23.17;21.87;;;;;;;;;;5073008;28;20500;-84
2022/06/04 02:54:18;;;;;;;23.63;22.17;;;;;;;;;;5072997;28;20413;-83
2022/06/04 02:56:46;;;;;;;23.80;22.30;;;;;;;;;;5054943;28;20416;-85
2022/06/04 02:59:17;;;;;;;23.23;21.80;;;;;;;;;;5073513;28;20401;-84
2022/06/04 03:01:46;;;;;;;23.60;22.20;;;;;;;;;;5073333;28;20408;-85
2022/06/04 03:04:13;;;;;;;23.43;22.10;;;;;;;;;;5072971;28;20431;-85
2022/06/04 03:06:41;;;;;;;23.50;22.10;;;;;;;;;;5073085;28;20445;-84
2022/06/04 03:09:11;;;;;;;23.60;22.10;;;;;;;;;;5073076;28;20931;-84
2022/06/04 03:11:41;;;;;;;23.90;22.20;;;;;;;;;;5072928;28;20473;-85
2022/06/04 03:14:08;;;;;;;23.90;22.50;;;;;;;;;;5073046;28;20477;-85
2022/06/04 03:16:38;;;;;;;22.60;21.30;;;;;;;;;;5072961;28;20437;-84
2022/06/04 03:19:07;;;;;;;23.70;22.30;;;;;;;;;;5072853;28;20431;-84
2022/06/04 03:21:34;;;;;;;23.03;21.73;;;;;;;;;;5072871;28;20813;-84
2022/06/04 03:24:02;;;;;;;23.87;22.47;;;;;;;;;;5073296;28;20439;-84
2022/06/04 03:26:29;;;;;;;24.40;22.90;;;;;;;;;;5073238;28;20449;-85
2022/06/04 03:28:56;;;;;;;24.17;22.77;;;;;;;;;;5072784;28;20792;-84
2022/06/04 03:31:24;;;;;;;23.20;21.90;;;;;;;;;;5072445;28;20909;-86
2022/06/04 03:33:53;;;;;;;24.43;22.77;;;;;;;;;;5072805;28;20764;-84
2022/06/04 03:36:21;;;;;;;22.70;21.37;;;;;;;;;;5072669;28;20428;-85
2022/06/04 03:38:48;;;;;;;22.83;21.60;;;;;;;;;;5072753;28;20421;-85
2022/06/04 03:41:15;;;;;;;23.40;21.93;;;;;;;;;;5072923;28;20453;-84
2022/06/04 03:43:46;;;;;;;23.83;22.43;;;;;;;;;;5073175;28;20457;-85
2022/06/04 03:46:14;;;;;;;22.20;20.90;;;;;;;;;;5072836;28;20867;-85
2022/06/04 03:48:42;;;;;;;23.70;22.20;;;;;;;;;;5072571;28;20434;-84
2022/06/04 03:51:10;;;;;;;23.00;21.60;;;;;;;;;;5072697;28;20437;-84
2022/06/04 03:53:38;;;;;;;22.07;20.70;;;;;;;;;;5072506;28;20438;-84
2022/06/04 03:56:05;;;;;;;22.77;21.37;;;;;;;;;;5072859;28;20810;-85
2022/06/04 03:58:32;;;;;;;22.90;21.13;;;;;;;;;;5072801;28;20856;-84
2022/06/04 04:01:00;;;;;;;22.60;21.20;;;;;;;;;;5072748;28;20469;-85
2022/06/04 04:03:27;;;;;;;22.10;20.90;;;;;;;;;;5072670;28;20427;-84
2022/06/04 04:05:56;;;;;;;22.17;20.80;;;;;;;;;;5072651;28;20413;-84
2022/06/04 04:08:25;;;;;;;22.77;21.47;;;;;;;;;;5073277;28;20434;-85
2022/06/04 04:10:53;;;;;;;23.03;21.53;;;;;;;;;;5076061;28;20417;-85
2022/06/04 04:13:20;;;;;;;25.63;24.13;;;;;;;;;;5075475;28;20456;-84
2022/06/04 04:15:48;;;;;;;25.70;24.20;;;;;;;;;;5076008;28;20560;-85
2022/06/04 04:18:16;;;;;;;23.73;22.43;;;;;;;;;;5076212;28;20436;-84
2022/06/04 04:20:45;;;;;;;25.57;23.97;;;;;;;;;;5054555;28;20533;-84
2022/06/04 04:23:12;;;;;;;24.50;23.10;;;;;;;;;;5055481;28;20459;-84
2022/06/04 04:25:42;;;;;;;23.53;22.20;;;;;;;;;;5055878;28;20435;-83
2022/06/04 04:28:09;;;;;;;23.60;22.20;;;;;;;;;;5055844;28;20436;-84
2022/06/04 04:30:37;;;;;;;24.33;22.70;;;;;;;;;;5055882;28;20463;-84
2022/06/04 04:33:05;;;;;;;22.37;21.00;;;;;;;;;;5055479;28;20457;-84
2022/06/04 04:35:33;;;;;;;23.37;21.97;;;;;;;;;;5056128;28;20439;-84
2022/06/04 04:38:01;;;;;;;22.93;21.63;;;;;;;;;;5055647;28;20436;-84
2022/06/04 04:40:29;;;;;;;23.57;22.17;;;;;;;;;;5055762;28;20407;-84
2022/06/04 04:42:58;;;;;;;23.10;21.90;;;;;;;;;;5055812;28;20406;-85
2022/06/04 04:45:26;;;;;;;22.90;21.67;;;;;;;;;;5055624;28;20825;-85
2022/06/04 04:47:54;;;;;;;23.17;21.67;;;;;;;;;;5054139;28;20426;-84
2022/06/04 04:50:22;;;;;;;23.87;22.40;;;;;;;;;;5055554;28;20427;-84
2022/06/04 04:52:50;;;;;;;22.80;21.43;;;;;;;;;;5055156;28;20533;-85
2022/06/04 04:55:18;;;;;;;22.70;21.40;;;;;;;;;;5055130;28;20474;-85
2022/06/04 04:57:45;;;;;;;23.27;21.97;;;;;;;;;;5055068;28;20435;-84
2022/06/04 05:00:16;;;;;;;23.53;22.13;;;;;;;;;;5055449;28;20447;-85
2022/06/04 05:02:44;;;;;;;22.93;21.53;;;;;;;;;;5055290;28;20855;-85
2022/06/04 05:05:12;;;;;;;22.40;21.20;;;;;;;;;;5055412;28;20500;-84
2022/06/04 05:07:39;;;;;;;23.13;21.63;;;;;;;;;;5054964;28;20414;-84
2022/06/04 05:10:08;;;;;;;22.60;21.20;;;;;;;;;;5055084;28;20414;-84
2022/06/04 05:12:35;;;;;;;23.07;21.77;;;;;;;;;;5054654;28;20828;-83
2022/06/04 05:15:02;;;;;;;23.37;22.00;;;;;;;;;;5055216;28;20467;-85
2022/06/04 05:17:31;;;;;;;23.47;22.17;;;;;;;;;;5054912;28;20437;-85
2022/06/04 05:19:59;;;;;;;23.50;22.20;;;;;;;;;;5061983;28;20490;-85
2022/06/04 05:22:26;;;;;;;23.07;21.70;;;;;;;;;;5074570;28;20429;-85
2022/06/04 05:24:54;;;;;;;22.40;21.10;;;;;;;;;;5074647;28;20433;-85
2022/06/04 05:27:21;;;;;;;21.80;20.60;;;;;;;;;;5074672;28;20424;-84
2022/06/04 05:29:49;;;;;;;23.30;22.10;;;;;;;;;;5074534;28;20434;-84
2022/06/04 05:32:16;;;;;;;22.60;21.30;;;;;;;;;;5074331;28;20780;-84
2022/06/04 05:34:45;;;;;;;22.57;21.17;;;;;;;;;;5074431;28;20446;-84
2022/06/04 05:37:13;;;;;;;22.60;21.40;;;;;;;;;;5074374;28;20425;-84
2022/06/04 05:39:40;;;;;;;22.63;21.43;;;;;;;;;;5074639;28;20413;-84
2022/06/04 05:42:07;;;;;;;22.50;21.20;;;;;;;;;;5074455;28;20418;-85
2022/06/04 05:44:35;;;;;;;23.13;21.83;;;;;;;;;;5074246;28;20910;-85
2022/06/04 05:47:04;;;;;;;22.73;21.43;;;;;;;;;;5074336;28;20439;-85
2022/06/04 05:49:31;;;;;;;23.70;22.30;;;;;;;;;;5074530;28;20516;-86
2022/06/04 05:52:00;;;;;;;22.50;21.20;;;;;;;;;;5074126;28;20477;-85
2022/06/04 05:54:27;;;;;;;22.40;21.20;;;;;;;;;;5074175;28;20439;-84
2022/06/04 05:56:55;;;;;;;22.57;21.37;;;;;;;;;;5056116;28;20497;-84
2022/06/04 05:59:23;;;;;;;23.33;22.10;;;;;;;;;;5073976;28;20425;-84
2022/06/04 06:01:51;;;;;;;22.33;21.13;;;;;;;;;;5074115;28;20417;-85
2022/06/04 06:04:20;;;;;;;23.03;21.63;;;;;;;;;;5073920;28;20438;-85
2022/06/04 06:06:48;;;;;;;23.13;21.53;;;;;;;;;;5073954;28;20454;-84
2022/06/04 06:09:17;;;;;;;22.13;20.93;;;;;;;;;;5073717;28;20435;-85
2022/06/04 06:11:45;;;;;;;21.50;20.27;;;;;;;;;;5073954;28;20420;-85
2022/06/04 06:14:14;;;;;;;22.57;21.37;;;;;;;;;;5073707;28;20459;-84
2022/06/04 06:16:43;;;;;;;21.53;20.33;;;;;;;;;;5074033;28;20449;-84
2022/06/04 06:19:10;;;;;;;22.23;21.03;;;;;;;;;;5073294;28;20417;-84
2022/06/04 06:21:38;;;;;;;22.50;21.20;;;;;;;;;;5073892;28;20409;-84
2022/06/04 06:24:08;;;;;;;21.70;20.50;;;;;;;;;;5073762;28;20799;-85
2022/06/04 06:26:41;;;;;;;22.30;21.00;;;;;;;;;;5073748;28;20413;-84
2022/06/04 06:29:09;;;;;;;22.60;21.20;;;;;;;;;;5073623;28;20442;-84
2022/06/04 06:31:36;;;;;;;23.47;21.87;;;;;;;;;;5073091;28;20434;-85
2022/06/04 06:34:04;;;;;;;22.97;21.67;;;;;;;;;;5073373;28;20463;-85
2022/06/04 06:36:31;;;;;;;23.17;21.83;;;;;;;;;;5073559;28;20405;-86
2022/06/04 06:38:58;;;;;;;21.53;20.27;;;;;;;;;;5073512;28;20472;-84
2022/06/04 06:41:26;;;;;;;22.70;21.40;;;;;;;;;;5073796;28;20438;-85
2022/06/04 06:43:55;;;;;;;23.30;22.00;;;;;;;;;;5073686;28;20417;-85
2022/06/04 06:46:23;;;;;;;23.53;21.60;;;;;;;;;;5073504;28;20767;-84
2022/06/04 06:48:52;;;;;;;22.77;21.37;;;;;;;;;;5073199;28;20409;-84
2022/06/04 06:51:21;;;;;;;21.83;20.63;;;;;;;;;;5073216;28;20413;-85
2022/06/04 06:53:48;;;;;;;22.77;21.37;;;;;;;;;;5073099;28;20461;-84
2022/06/04 06:56:16;;;;;;;22.60;21.10;;;;;;;;;;5072962;28;20858;-85
2022/06/04 06:58:44;;;;;;;22.63;21.37;;;;;;;;;;5073351;28;20497;-85
2022/06/04 07:01:13;;;;;;;22.63;21.33;;;;;;;;;;5073393;28;20442;-85
2022/06/04 07:03:41;;;;;;;23.70;22.00;;;;;;;;;;5072811;28;20932;-82
2022/06/04 07:06:09;;;;;;;23.10;21.70;;;;;;;;;;5073387;28;20441;-85
2022/06/04 07:08:37;;;;;;;23.00;21.70;;;;;;;;;;5072991;28;20435;-85
2022/06/04 07:11:04;;;;;;;23.93;22.53;;;;;;;;;;5073136;28;20404;-85
2022/06/04 07:13:32;;;;;;;22.13;20.73;;;;;;;;;;5072968;28;20457;-84
2022/06/04 07:15:59;;;;;;;23.10;21.60;;;;;;;;;;5072915;28;20452;-85
2022/06/04 07:18:28;;;;;;;23.23;21.93;;;;;;;;;;5073474;28;20439;-86
2022/06/04 07:20:56;;;;;;;24.00;22.23;;;;;;;;;;5073015;28;20987;-84
2022/06/04 07:23:23;;;;;;;23.33;22.03;;;;;;;;;;5073229;28;20441;-85
2022/06/04 07:25:51;;;;;;;23.00;21.60;;;;;;;;;;5073030;28;20434;-84
2022/06/04 07:28:18;;;;;;;23.80;22.40;;;;;;;;;;5073030;28;20434;-85
2022/06/04 07:30:45;;;;;;;23.23;21.93;;;;;;;;;;5073107;28;20446;-85
2022/06/04 07:33:13;;;;;;;23.70;22.20;;;;;;;;;;5072800;28;20505;-84
2022/06/04 07:35:46;;;;;;;23.40;22.00;;;;;;;;;;5073210;28;20424;-85
2022/06/04 07:38:14;;;;;;;23.03;21.73;;;;;;;;;;5072903;28;20417;-85
2022/06/04 07:40:41;;;;;;;23.63;22.23;;;;;;;;;;5073005;28;20445;-85
2022/06/04 07:43:09;;;;;;;24.23;22.73;;;;;;;;;;5074766;28;20495;-84
2022/06/04 07:45:36;;;;;;;22.70;21.40;;;;;;;;;;5076391;28;20420;-85
2022/06/04 07:48:04;;;;;;;23.07;21.67;;;;;;;;;;5076706;28;20477;-85
2022/06/04 07:50:32;;;;;;;22.53;21.13;;;;;;;;;;5076672;28;20416;-85
2022/06/04 07:53:02;;;;;;;22.60;21.30;;;;;;;;;;5076092;28;20472;-85
2022/06/04 07:55:29;;;;;;;22.50;21.00;;;;;;;;;;5076514;28;20890;-84
2022/06/04 07:57:57;;;;;;;23.60;22.20;;;;;;;;;;5076488;28;20771;-85
2022/06/04 08:00:25;;;;;;;23.17;21.77;;;;;;;;;;5058535;28;20823;-84
2022/06/04 08:02:52;;;;;;;24.87;23.37;;;;;;;;;;5076123;28;20425;-84
2022/06/04 08:05:20;;;;;;;22.90;21.50;;;;;;;;;;5058834;28;20791;-84
2022/06/04 08:07:47;;;;;;;23.37;22.00;;;;;;;;;;5076424;28;20405;-84
2022/06/04 08:10:16;;;;;;;23.43;21.93;;;;;;;;;;5075950;28;20438;-85
2022/06/04 08:12:46;;;;;;;23.33;22.03;;;;;;;;;;5076202;28;20471;-85
2022/06/04 08:15:14;;;;;;;24.33;22.73;;;;;;;;;;5075913;28;20440;-85
2022/06/04 08:17:41;;;;;;;23.17;21.77;;;;;;;;;;5076144;28;20422;-85
2022/06/04 08:20:09;;;;;;;23.40;21.90;;;;;;;;;;5075828;28;20832;-85
2022/06/04 08:22:37;;;;;;;22.50;21.20;;;;;;;;;;5075812;28;20406;-85
2022/06/04 08:25:04;;;;;;;23.80;22.33;;;;;;;;;;5075917;28;20428;-85
2022/06/04 08:27:33;;;;;;;23.50;22.00;;;;;;;;;;5075879;28;20420;-84
2022/06/04 08:30:00;;;;;;;24.03;22.63;;;;;;;;;;5075951;28;20439;-84
2022/06/04 08:32:28;;;;;;;23.60;22.17;;;;;;;;;;5075603;28;20443;-85
2022/06/04 08:34:55;;;;;;;24.33;22.87;;;;;;;;;;5075289;28;20450;-84
2022/06/04 08:37:22;;;;;;;24.73;23.23;;;;;;;;;;5075945;28;20422;-84
2022/06/04 08:39:50;;;;;;;24.27;22.70;;;;;;;;;;5075570;28;20470;-84
2022/06/04 08:42:26;;;;;;;24.70;23.20;;;;;;;;;;5075487;28;20779;-84
2022/06/04 08:45:00;;;;;;;23.73;22.13;;;;;;;;;;5057623;28;20483;-85
2022/06/04 08:47:31;;;;;;;24.33;22.83;;;;;;;;;;5075587;28;20438;-85
2022/06/04 08:50:01;;;;;;;23.40;22.00;;;;;;;;;;5075762;28;20413;-85
2022/06/04 08:52:31;;;;;;;23.83;22.40;;;;;;;;;;5075356;28;20413;-83
2022/06/04 08:57:50;;;;;;;24.43;22.60;;;;;;;;;;5075186;28;20907;-84
2022/06/04 09:00:22;;;;;;;22.43;21.13;;;;;;;;;;5075157;28;20409;-85
2022/06/04 09:02:53;;;;;;;24.67;23.17;;;;;;;;;;5075014;28;20927;-84
2022/06/04 09:05:23;;;;;;;23.83;22.33;;;;;;;;;;5075596;28;20428;-85
2022/06/04 09:07:52;;;;;;;25.00;23.40;;;;;;;;;;5074816;28;20771;-84
2022/06/04 09:10:23;;;;;;;24.60;23.00;;;;;;;;;;5075086;28;20421;-85
2022/06/04 09:12:51;;;;;;;23.97;22.57;;;;;;;;;;5075152;28;20923;-83
2022/06/04 09:15:24;;;;;;;23.97;22.27;;;;;;;;;;5074946;28;20784;-85
2022/06/04 09:17:53;;;;;;;23.40;22.00;;;;;;;;;;5074800;28;20413;-85
2022/06/04 09:20:26;;;;;;;24.40;22.90;;;;;;;;;;5074484;28;20464;-84
2022/06/04 09:22:56;;;;;;;23.93;22.53;;;;;;;;;;5074980;28;20916;-85
2022/06/04 09:25:25;;;;;;;23.60;22.20;;;;;;;;;;5075006;28;20842;-85
2022/06/04 09:27:57;;;;;;;23.20;21.80;;;;;;;;;;5074498;28;20409;-85
2022/06/04 09:30:28;;;;;;;24.97;23.33;;;;;;;;;;5056896;28;20447;-84
2022/06/04 09:33:24;;;;;;;24.07;22.67;;;;;;;;;;5074590;28;20917;-85
2022/06/04 09:35:51;;;;;;;23.97;22.57;;;;;;;;;;5074492;28;20475;-85
2022/06/04 09:38:23;;;;;;;23.77;22.37;;;;;;;;;;5074414;28;20426;-85
2022/06/04 09:40:57;;;;;;;23.93;22.47;;;;;;;;;;5074359;28;20434;-85
2022/06/04 09:43:24;;;;;;;24.03;22.60;;;;;;;;;;5074248;28;20422;-85
2022/06/04 09:45:54;;;;;;;24.50;23.10;;;;;;;;;;5074340;28;20447;-84
2022/06/04 09:48:23;;;;;;;23.40;22.00;;;;;;;;;;5074383;28;20876;-84
2022/06/04 09:50:53;;;;;;;24.40;23.00;;;;;;;;;;5073997;28;20417;-84
2022/06/04 09:53:22;;;;;;;24.70;23.30;;;;;;;;;;5074075;28;20522;-84
2022/06/04 09:55:51;;;;;;;23.67;22.10;;;;;;;;;;5074089;28;20443;-84
2022/06/04 09:58:20;;;;;;;23.30;21.80;;;;;;;;;;5073527;28;20963;-85
2022/06/04 10:00:55;;;;;;;22.83;21.43;;;;;;;;;;5074113;28;20466;-84
2022/06/04 10:03:24;;;;;;;22.63;21.23;;;;;;;;;;5073957;28;20436;-84
2022/06/04 10:05:53;;;;;;;22.60;21.30;;;;;;;;;;5073107;28;20418;-85
2022/06/04 10:08:23;;;;;;;22.40;21.00;;;;;;;;;;5073550;28;20417;-85
2022/06/04 10:10:51;;;;;;;23.87;22.47;;;;;;;;;;5074070;28;20852;-84
2022/06/04 10:16:15;;;;;;;22.90;21.60;;;;;;;;;;5073858;28;20497;-85
2022/06/04 10:18:53;;;;;;;23.80;22.40;;;;;;;;;;5072999;28;20445;-85
2022/06/04 10:21:21;;;;;;;24.80;23.40;;;;;;;;;;5073502;28;20843;-85
2022/06/04 10:23:50;;;;;;;24.93;23.43;;;;;;;;;;5055626;28;20990;-85
2022/06/04 10:26:23;;;;;;;24.50;23.10;;;;;;;;;;5073882;28;20438;-85
2022/06/04 10:28:58;;;;;;;24.53;23.13;;;;;;;;;;5073483;28;20425;-85
2022/06/04 10:31:31;;;;;;;25.60;24.20;;;;;;;;;;5073752;28;20777;-85
2022/06/04 10:34:03;;;;;;;25.87;24.40;;;;;;;;;;5055082;28;20847;-84
2022/06/04 10:36:44;;;;;;;25.23;23.80;;;;;;;;;;5073184;28;20421;-83
2022/06/04 10:39:19;;;;;;;24.90;23.53;;;;;;;;;;5073662;28;20472;-84
2022/06/04 10:41:49;;;;;;;24.07;22.57;;;;;;;;;;5073475;28;20446;-83
2022/06/04 10:44:34;;;;;;;23.37;22.00;;;;;;;;;;5055378;28;21004;-83
2022/06/04 10:47:08;;;;;;;24.30;22.90;;;;;;;;;;5073187;28;20417;-83
2022/06/04 10:49:47;;;;;;;23.40;22.07;;;;;;;;;;5073439;28;20503;-84
2022/06/04 10:52:24;;;;;;;24.27;22.80;;;;;;;;;;5073634;28;20416;-84
2022/06/04 10:54:54;;;;;;;25.10;23.40;;;;;;;;;;5073180;28;20489;-84
2022/06/04 10:57:26;;;;;;;24.23;22.70;;;;;;;;;;5073258;28;20409;-84
2022/06/04 10:59:55;;;;;;;23.17;21.77;;;;;;;;;;5073334;28;20458;-84
2022/06/04 11:02:25;;;;;;;23.37;21.87;;;;;;;;;;5073364;28;20409;-83
2022/06/04 11:04:56;;;;;;;23.27;21.53;;;;;;;;;;5073012;28;20420;-83
2022/06/04 11:07:35;;;;;;;23.30;21.90;;;;;;;;;;5073289;28;20409;-84
2022/06/04 11:10:04;;;;;;;22.17;20.87;;;;;;;;;;5072889;28;20449;-84
2022/06/04 11:12:37;;;;;;;23.60;22.10;;;;;;;;;;5072814;28;20417;-84
2022/06/04 11:15:08;;;;;;;23.20;21.80;;;;;;;;;;5072953;28;20510;-83
2022/06/04 11:17:39;;;;;;;24.60;23.20;;;;;;;;;;5074191;28;20480;-83
2022/06/04 11:20:12;;;;;;;23.63;22.23;;;;;;;;;;5076835;28;20967;-84
2022/06/04 11:22:41;;;;;;;24.30;22.90;;;;;;;;;;5076910;28;20441;-84
2022/06/04 11:25:15;;;;;;;23.83;22.23;;;;;;;;;;5076707;28;20428;-84
2022/06/04 11:27:45;;;;;;;23.27;21.97;;;;;;;;;;5076738;28;20511;-84
2022/06/04 11:30:16;;;;;;;23.20;21.90;;;;;;;;;;5077095;28;20405;-84
2022/06/04 11:32:47;;;;;;;23.70;22.20;;;;;;;;;;5077073;28;20437;-83
2022/06/04 11:35:28;;;;;;;24.10;22.70;;;;;;;;;;5076934;28;20486;-84
2022/06/04 11:38:03;;;;;;;24.50;23.10;;;;;;;;;;5076940;28;20444;-83
2022/06/04 11:40:34;;;;;;;23.70;22.40;;;;;;;;;;5076654;28;20918;-84
2022/06/04 11:43:02;;;;;;;23.70;22.30;;;;;;;;;;5076707;28;20413;-84
2022/06/04 11:45:34;;;;;;;23.50;22.10;;;;;;;;;;5076359;28;20915;-83
2022/06/04 11:48:07;;;;;;;23.23;21.73;;;;;;;;;;5076525;28;20431;-84
2022/06/04 11:50:39;;;;;;;23.30;21.90;;;;;;;;;;5076440;28;20781;-84
2022/06/04 11:53:10;;;;;;;24.20;22.80;;;;;;;;;;5076385;28;20409;-84
2022/06/04 11:55:40;;;;;;;24.70;23.30;;;;;;;;;;5076741;28;20460;-83
2022/06/04 11:58:22;;;;;;;24.37;22.97;;;;;;;;;;5076462;28;20417;-83
2022/06/04 12:00:50;;;;;;;25.40;23.90;;;;;;;;;;5076431;28;20416;-83
2022/06/04 12:03:22;;;;;;;23.73;22.43;;;;;;;;;;5076096;28;20405;-83
2022/06/04 12:05:56;;;;;;;24.63;23.20;;;;;;;;;;5076327;28;20545;-83
2022/06/04 12:08:26;;;;;;;25.23;23.80;;;;;;;;;;5076137;28;20434;-84
2022/06/04 12:11:14;;;;;;;24.33;22.83;;;;;;;;;;5076283;28;20409;-84
2022/06/04 12:13:47;;;;;;;23.97;22.47;;;;;;;;;;5070443;28;20536;-83
2022/06/04 12:16:16;;;;;;;24.10;22.70;;;;;;;;;;5075777;28;20474;-84
2022/06/04 12:18:45;;;;;;;24.10;22.70;;;;;;;;;;5075896;28;20435;-84
2022/06/04 12:24:20;;;;;;;24.53;23.03;;;;;;;;;;5075878;28;21266;-84
2022/06/04 12:26:48;;;;;;;23.90;22.50;;;;;;;;;;5076258;28;20434;-86
2022/06/04 12:29:33;;;;;;;24.43;23.00;;;;;;;;;;5076002;28;20446;-89
2022/06/04 12:32:02;;;;;;;24.57;23.03;;;;;;;;;;5060893;28;20466;-83
2022/06/04 12:34:31;;;;;;;25.10;23.50;;;;;;;;;;5075010;28;20444;-83
2022/06/04 12:37:00;;;;;;;24.80;23.40;;;;;;;;;;5075601;28;20425;-82
2022/06/04 12:39:29;;;;;;;25.17;23.50;;;;;;;;;;5075655;28;20452;-83
2022/06/04 12:41:57;;;;;;;24.10;22.73;;;;;;;;;;5075923;28;20803;-83
2022/06/04 12:44:26;;;;;;;25.30;23.63;;;;;;;;;;5075814;28;20475;-83
2022/06/04 12:46:55;;;;;;;25.70;23.90;;;;;;;;;;5075177;28;20454;-83
2022/06/04 12:49:33;;;;;;;25.57;23.97;;;;;;;;;;5075481;28;20439;-81
2022/06/04 12:52:04;;;;;;;25.00;23.50;;;;;;;;;;5075155;28;20519;-82
2022/06/04 12:54:46;;;;;;;24.97;23.47;;;;;;;;;;5075373;28;20474;-86
2022/06/04 12:57:21;;;;;;;25.73;24.03;;;;;;;;;;5072450;28;20446;-83
2022/06/04 12:59:49;;;;;;;25.53;23.93;;;;;;;;;;5074887;28;20819;-82
2022/06/04 13:02:30;;;;;;;25.20;23.70;;;;;;;;;;5074538;28;20431;-81
2022/06/04 13:05:09;;;;;;;25.90;24.20;;;;;;;;;;5074463;28;20469;-83
2022/06/04 13:07:40;;;;;;;26.27;24.67;;;;;;;;;;5074217;28;20922;-82
2022/06/04 13:10:15;;;;;;;26.00;24.40;;;;;;;;;;5074676;28;20420;-82
2022/06/04 13:12:46;;;;;;;25.53;23.93;;;;;;;;;;5074541;28;20423;-82
2022/06/04 13:15:19;;;;;;;25.63;24.13;;;;;;;;;;5074017;28;20494;-82
2022/06/04 13:17:48;;;;;;;26.43;24.63;;;;;;;;;;5074465;28;20683;-82
2022/06/04 13:20:31;;;;;;;25.73;23.80;;;;;;;;;;5074022;28;20487;-82
2022/06/04 13:23:01;;;;;;;24.10;22.70;;;;;;;;;;5057301;28;20431;-83
2022/06/04 13:25:31;;;;;;;25.37;23.80;;;;;;;;;;5074418;28;20408;-82
2022/06/04 13:27:59;;;;;;;25.63;23.97;;;;;;;;;;5074077;28;20976;-82
2022/06/04 13:30:28;;;;;;;25.07;23.57;;;;;;;;;;5074324;28;20450;-82
2022/06/04 13:33:06;;;;;;;25.83;24.33;;;;;;;;;;5074248;28;20432;-82
2022/06/04 13:35:34;;;;;;;26.47;24.87;;;;;;;;;;5073896;28;20492;-81
2022/06/04 13:38:04;;;;;;;25.27;23.77;;;;;;;;;;5073713;28;20405;-82
2022/06/04 13:40:32;;;;;;;24.60;23.10;;;;;;;;;;5073478;28;20449;-82
2022/06/04 13:43:00;;;;;;;25.80;24.20;;;;;;;;;;5073886;28;20820;-81
2022/06/04 13:45:30;;;;;;;24.30;22.90;;;;;;;;;;5073630;28;20452;-82
2022/06/04 13:47:58;;;;;;;25.90;24.10;;;;;;;;;;5073780;28;20854;-82
2022/06/04 13:50:28;;;;;;;25.33;23.77;;;;;;;;;;5073652;28;20434;-82
2022/06/04 13:52:58;;;;;;;24.63;23.17;;;;;;;;;;5073763;28;20533;-82
2022/06/04 13:55:32;;;;;;;26.50;24.93;;;;;;;;;;5073777;28;20486;-83
2022/06/04 13:58:00;;;;;;;26.20;24.70;;;;;;;;;;5074007;28;20417;-83
2022/06/04 14:00:30;;;;;;;25.80;24.23;;;;;;;;;;5073789;28;20439;-82
2022/06/04 14:02:59;;;;;;;25.93;24.50;;;;;;;;;;5074216;28;20425;-82
2022/06/04 14:05:44;;;;;;;26.03;24.53;;;;;;;;;;5073729;28;20413;-82
2022/06/04 14:08:13;;;;;;;25.97;24.37;;;;;;;;;;5073719;28;20439;-83
2022/06/04 14:10:43;;;;;;;25.50;24.00;;;;;;;;;;5073604;28;20501;-84
2022/06/04 14:13:28;;;;;;;25.50;24.00;;;;;;;;;;5073581;28;20509;-83
2022/06/04 14:16:02;;;;;;;25.90;24.30;;;;;;;;;;5073113;28;20496;-83
2022/06/04 14:18:34;;;;;;;25.53;23.93;;;;;;;;;;5073791;28;20431;-83
2022/06/04 14:21:20;;;;;;;25.83;24.27;;;;;;;;;;5073016;28;20481;-83
2022/06/04 14:23:53;;;;;;;26.10;24.50;;;;;;;;;;5073073;28;20463;-84
2022/06/04 14:26:26;;;;;;;26.23;24.70;;;;;;;;;;5072968;28;20946;-84
2022/06/04 14:28:55;;;;;;;25.83;24.23;;;;;;;;;;5073388;28;20441;-82
2022/06/04 14:31:33;;;;;;;26.20;24.50;;;;;;;;;;5072902;28;20437;-83
2022/06/04 14:34:02;;;;;;;26.43;24.93;;;;;;;;;;5072882;28;20417;-82
2022/06/04 14:36:32;;;;;;;25.77;24.23;;;;;;;;;;5072736;28;20506;-82
2022/06/04 14:39:00;;;;;;;26.03;24.50;;;;;;;;;;5073292;28;20405;-83
2022/06/04 14:41:49;;;;;;;25.63;23.93;;;;;;;;;;5073376;28;20405;-83
2022/06/04 14:44:26;;;;;;;26.40;24.83;;;;;;;;;;5073124;28;20410;-83
2022/06/04 14:47:03;;;;;;;25.70;24.23;;;;;;;;;;5072984;28;20939;-83